createdAt,value
2022-07-26T00:00:33.419Z,0.00
2022-07-26T00:01:33.434Z,0.00
2022-07-26T00:02:33.511Z,0.00
2022-07-26T00:03:33.349Z,0.00
2022-07-26T00:04:33.324Z,0.00
2022-07-26T00:05:33.299Z,0.00
2022-07-26T00:06:33.274Z,0.00
2022-07-26T00:07:36.620Z,0.00
2022-07-26T00:08:33.230Z,0.00
2022-07-26T00:09:33.205Z,0.00
2022-07-26T00:10:33.178Z,0.00
2022-07-26T00:11:33.157Z,0.00
2022-07-26T00:12:33.134Z,0.00
2022-07-26T00:13:33.110Z,0.00
2022-07-26T00:14:33.085Z,0.00
2022-07-26T00:15:33.061Z,0.00
2022-07-26T00:16:33.117Z,0.00
2022-07-26T00:17:33.017Z,0.00
2022-07-26T00:18:33.015Z,0.00
2022-07-26T00:19:32.967Z,0.00
2022-07-26T00:20:32.941Z,0.00
2022-07-26T00:21:32.919Z,0.00
2022-07-26T00:22:32.894Z,0.00
2022-07-26T00:23:32.872Z,0.00
2022-07-26T00:24:35.469Z,0.00
2022-07-26T00:25:32.826Z,0.00
2022-07-26T00:26:32.798Z,0.00
2022-07-26T00:27:32.777Z,0.00
2022-07-26T00:28:32.753Z,0.00
2022-07-26T00:29:32.731Z,0.00
2022-07-26T00:30:32.706Z,0.00
2022-07-26T00:31:32.774Z,0.00
2022-07-26T00:32:32.658Z,0.00
2022-07-26T00:33:32.632Z,0.00
2022-07-26T00:34:32.608Z,0.00
2022-07-26T00:35:32.587Z,0.00
2022-07-26T00:36:32.562Z,0.00
2022-07-26T00:37:32.535Z,0.00
2022-07-26T00:38:32.512Z,0.00
2022-07-26T00:39:32.490Z,0.00
2022-07-26T00:40:32.466Z,0.00
2022-07-26T00:41:32.444Z,0.00
2022-07-26T00:42:32.415Z,0.00
2022-07-26T00:43:32.398Z,0.00
2022-07-26T00:44:32.372Z,0.00
2022-07-26T00:45:32.347Z,0.00
2022-07-26T00:46:32.421Z,0.00
2022-07-26T00:47:32.297Z,0.00
2022-07-26T00:48:32.300Z,0.00
2022-07-26T00:49:32.249Z,0.00
2022-07-26T00:50:32.226Z,0.00
2022-07-26T00:51:32.202Z,0.00
2022-07-26T00:52:32.176Z,0.00
2022-07-26T00:53:32.152Z,0.00
2022-07-26T00:54:32.129Z,0.00
2022-07-26T00:55:32.112Z,0.00
2022-07-26T00:56:32.081Z,0.00
2022-07-26T00:57:32.056Z,0.00
2022-07-26T00:58:32.030Z,0.00
2022-07-26T00:59:32.007Z,0.00
2022-07-26T01:00:31.983Z,0.00
2022-07-26T01:01:32.197Z,0.00
2022-07-26T01:02:31.958Z,0.00
2022-07-26T01:03:36.620Z,0.00
2022-07-26T01:04:31.888Z,0.00
2022-07-26T01:05:31.865Z,0.00
2022-07-26T01:06:31.842Z,0.00
2022-07-26T01:07:31.815Z,0.00
2022-07-26T01:08:31.790Z,0.00
2022-07-26T01:09:31.770Z,0.00
2022-07-26T01:10:31.741Z,0.00
2022-07-26T01:11:31.717Z,0.00
2022-07-26T01:12:31.693Z,0.00
2022-07-26T01:13:35.104Z,0.00
2022-07-26T01:14:31.652Z,0.00
2022-07-26T01:15:31.620Z,0.00
2022-07-26T01:16:31.716Z,0.00
2022-07-26T01:17:31.577Z,0.00
2022-07-26T01:18:31.549Z,0.00
2022-07-26T01:19:31.529Z,0.00
2022-07-26T01:20:31.498Z,0.00
2022-07-26T01:21:31.474Z,0.00
2022-07-26T01:22:31.451Z,0.00
2022-07-26T01:23:31.433Z,0.00
2022-07-26T01:24:31.402Z,0.00
2022-07-26T01:25:31.382Z,0.00
2022-07-26T01:26:31.352Z,0.00
2022-07-26T01:27:34.111Z,0.00
2022-07-26T01:28:31.312Z,0.00
2022-07-26T01:29:35.986Z,0.00
2022-07-26T01:30:31.257Z,0.00
2022-07-26T01:31:31.337Z,0.00
2022-07-26T01:32:31.211Z,0.00
2022-07-26T01:33:31.187Z,0.00
2022-07-26T01:34:31.157Z,0.00
2022-07-26T01:35:31.134Z,0.00
2022-07-26T01:36:31.109Z,0.00
2022-07-26T01:37:31.086Z,0.00
2022-07-26T01:38:31.072Z,0.00
2022-07-26T01:39:31.039Z,0.00
2022-07-26T01:40:31.015Z,0.00
2022-07-26T01:41:38.088Z,0.00
2022-07-26T01:42:30.968Z,0.00
2022-07-26T01:43:30.940Z,0.00
2022-07-26T01:44:30.918Z,0.00
2022-07-26T01:45:30.925Z,0.00
2022-07-26T01:46:30.864Z,0.00
2022-07-26T01:47:30.846Z,0.00
2022-07-26T01:48:30.881Z,0.00
2022-07-26T01:49:30.793Z,0.00
2022-07-26T01:50:30.769Z,0.00
2022-07-26T01:51:30.745Z,0.00
2022-07-26T01:52:30.725Z,0.00
2022-07-26T01:53:30.705Z,0.00
2022-07-26T01:54:30.666Z,0.00
2022-07-26T01:55:30.645Z,0.00
2022-07-26T01:56:30.628Z,0.00
2022-07-26T01:57:30.598Z,0.00
2022-07-26T01:58:30.571Z,0.00
2022-07-26T01:59:30.547Z,0.00
2022-07-26T02:00:30.523Z,0.00
2022-07-26T02:01:39.721Z,0.00
2022-07-26T02:02:30.587Z,0.00
2022-07-26T02:03:30.449Z,0.00
2022-07-26T02:04:30.422Z,0.00
2022-07-26T02:05:30.402Z,0.00
2022-07-26T02:06:30.373Z,0.00
2022-07-26T02:07:30.349Z,0.00
2022-07-26T02:08:30.324Z,0.00
2022-07-26T02:09:34.113Z,0.00
2022-07-26T02:10:30.274Z,0.00
2022-07-26T02:11:30.251Z,0.00
2022-07-26T02:12:30.225Z,0.00
2022-07-26T02:13:30.201Z,0.00
2022-07-26T02:14:30.177Z,0.00
2022-07-26T02:15:30.273Z,0.00
2022-07-26T02:16:30.131Z,0.00
2022-07-26T02:17:30.103Z,0.00
2022-07-26T02:18:30.078Z,0.00
2022-07-26T02:19:30.053Z,0.00
2022-07-26T02:20:30.029Z,0.00
2022-07-26T02:21:30.010Z,0.00
2022-07-26T02:22:29.981Z,0.00
2022-07-26T02:23:29.957Z,0.00
2022-07-26T02:24:29.938Z,0.00
2022-07-26T02:25:29.907Z,0.00
2022-07-26T02:26:29.879Z,0.00
2022-07-26T02:27:29.855Z,0.00
2022-07-26T02:28:29.832Z,0.00
2022-07-26T02:29:29.808Z,0.00
2022-07-26T02:30:29.781Z,0.00
2022-07-26T02:31:32.351Z,0.00
2022-07-26T02:32:29.736Z,0.00
2022-07-26T02:33:29.706Z,0.00
2022-07-26T02:34:33.794Z,0.00
2022-07-26T02:35:29.658Z,0.00
2022-07-26T02:36:29.636Z,0.00
2022-07-26T02:37:29.608Z,0.00
2022-07-26T02:38:29.585Z,0.00
2022-07-26T02:39:29.557Z,0.00
2022-07-26T02:40:29.534Z,4.00
2022-07-26T02:41:29.508Z,4.00
2022-07-26T02:42:29.481Z,4.00
2022-07-26T02:43:29.461Z,0.00
2022-07-26T02:44:29.436Z,4.00
2022-07-26T02:45:29.412Z,4.00
2022-07-26T02:46:29.441Z,4.00
2022-07-26T02:47:29.360Z,8.00
2022-07-26T02:48:29.403Z,4.00
2022-07-26T02:49:29.313Z,8.00
2022-07-26T02:50:29.285Z,8.00
2022-07-26T02:51:29.259Z,8.00
2022-07-26T02:52:29.238Z,8.00
2022-07-26T02:53:29.215Z,12.00
2022-07-26T02:54:29.188Z,12.00
2022-07-26T02:55:29.163Z,16.00
2022-07-26T02:56:29.139Z,16.00
2022-07-26T02:57:29.111Z,20.00
2022-07-26T02:58:29.088Z,20.00
2022-07-26T02:59:29.064Z,28.00
2022-07-26T03:00:29.042Z,28.00
2022-07-26T03:01:29.138Z,32.00
2022-07-26T03:02:29.074Z,40.00
2022-07-26T03:03:28.966Z,44.00
2022-07-26T03:04:28.937Z,48.00
2022-07-26T03:05:28.914Z,52.00
2022-07-26T03:06:28.886Z,60.00
2022-07-26T03:07:28.864Z,72.00
2022-07-26T03:08:28.838Z,76.00
2022-07-26T03:09:28.814Z,88.00
2022-07-26T03:10:28.789Z,96.00
2022-07-26T03:11:28.765Z,108.00
2022-07-26T03:12:28.743Z,116.00
2022-07-26T03:13:28.714Z,128.00
2022-07-26T03:14:28.686Z,140.00
2022-07-26T03:15:28.746Z,156.00
2022-07-26T03:16:29.792Z,176.00
2022-07-26T03:17:28.617Z,188.00
2022-07-26T03:18:28.589Z,208.00
2022-07-26T03:19:28.564Z,224.00
2022-07-26T03:20:28.541Z,244.00
2022-07-26T03:21:28.513Z,264.00
2022-07-26T03:22:28.487Z,288.00
2022-07-26T03:23:28.464Z,304.00
2022-07-26T03:24:28.437Z,328.00
2022-07-26T03:25:28.415Z,352.00
2022-07-26T03:26:28.389Z,376.00
2022-07-26T03:27:28.364Z,404.00
2022-07-26T03:28:28.339Z,432.00
2022-07-26T03:29:28.313Z,460.00
2022-07-26T03:30:28.288Z,492.00
2022-07-26T03:31:28.371Z,524.00
2022-07-26T03:32:28.243Z,552.00
2022-07-26T03:33:28.215Z,584.00
2022-07-26T03:34:28.195Z,616.00
2022-07-26T03:35:28.177Z,652.00
2022-07-26T03:36:28.142Z,688.00
2022-07-26T03:37:44.166Z,724.00
2022-07-26T03:38:28.091Z,764.00
2022-07-26T03:39:28.075Z,800.00
2022-07-26T03:40:28.039Z,848.00
2022-07-26T03:41:28.012Z,896.00
2022-07-26T03:42:27.991Z,940.00
2022-07-26T03:43:27.965Z,976.00
2022-07-26T03:44:27.938Z,1016.00
2022-07-26T03:45:27.914Z,1056.00
2022-07-26T03:46:27.967Z,1104.00
2022-07-26T03:47:27.862Z,1164.00
2022-07-26T03:48:27.904Z,1216.00
2022-07-26T03:49:27.913Z,1256.00
2022-07-26T03:50:27.789Z,1300.00
2022-07-26T03:51:27.763Z,1340.00
2022-07-26T03:52:27.736Z,1396.00
2022-07-26T03:53:27.710Z,1500.00
2022-07-26T03:54:27.702Z,1540.00
2022-07-26T03:55:27.661Z,1724.00
2022-07-26T03:56:27.637Z,1876.00
2022-07-26T03:57:28.435Z,1824.00
2022-07-26T03:58:27.588Z,1916.00
2022-07-26T03:59:27.562Z,2024.00
2022-07-26T04:00:27.541Z,1880.00
2022-07-26T04:01:27.610Z,1796.00
2022-07-26T04:02:27.541Z,1828.00
2022-07-26T04:03:27.465Z,1880.00
2022-07-26T04:04:27.441Z,1908.00
2022-07-26T04:05:27.413Z,1952.00
2022-07-26T04:06:27.388Z,1988.00
2022-07-26T04:07:27.367Z,2032.00
2022-07-26T04:08:27.344Z,2076.00
2022-07-26T04:09:27.317Z,2112.00
2022-07-26T04:10:27.287Z,2160.00
2022-07-26T04:11:28.293Z,2212.00
2022-07-26T04:12:27.243Z,2252.00
2022-07-26T04:13:27.216Z,2300.00
2022-07-26T04:14:27.191Z,2336.00
2022-07-26T04:15:27.167Z,2388.00
2022-07-26T04:16:27.220Z,2436.00
2022-07-26T04:17:27.144Z,2484.00
2022-07-26T04:18:27.092Z,2536.00
2022-07-26T04:19:27.065Z,2576.00
2022-07-26T04:20:27.043Z,2628.00
2022-07-26T04:21:27.018Z,2680.00
2022-07-26T04:22:26.994Z,2736.00
2022-07-26T04:23:26.971Z,2792.00
2022-07-26T04:24:26.945Z,2832.00
2022-07-26T04:25:26.919Z,2872.00
2022-07-26T04:26:26.894Z,2916.00
2022-07-26T04:27:26.871Z,2968.00
2022-07-26T04:28:26.847Z,3040.00
2022-07-26T04:29:26.821Z,3120.00
2022-07-26T04:30:26.863Z,3196.00
2022-07-26T04:31:26.793Z,3276.00
2022-07-26T04:32:26.748Z,3344.00
2022-07-26T04:33:26.722Z,3388.00
2022-07-26T04:34:26.700Z,3412.00
2022-07-26T04:35:26.672Z,3416.00
2022-07-26T04:36:26.650Z,3416.00
2022-07-26T04:37:26.624Z,3440.00
2022-07-26T04:38:26.603Z,3568.00
2022-07-26T04:39:26.579Z,3676.00
2022-07-26T04:40:26.553Z,3824.00
2022-07-26T04:41:26.527Z,3968.00
2022-07-26T04:42:26.504Z,4128.00
2022-07-26T04:43:26.481Z,4280.00
2022-07-26T04:44:26.453Z,4396.00
2022-07-26T04:45:26.430Z,4436.00
2022-07-26T04:46:26.496Z,4528.00
2022-07-26T04:47:26.380Z,4876.00
2022-07-26T04:48:26.385Z,5252.00
2022-07-26T04:49:26.335Z,5744.00
2022-07-26T04:50:26.309Z,5988.00
2022-07-26T04:51:26.286Z,5008.00
2022-07-26T04:52:26.264Z,4720.00
2022-07-26T04:53:26.240Z,4708.00
2022-07-26T04:54:26.212Z,4648.00
2022-07-26T04:55:26.191Z,4560.00
2022-07-26T04:56:26.167Z,4404.00
2022-07-26T04:57:26.145Z,4256.00
2022-07-26T04:58:26.127Z,4156.00
2022-07-26T04:59:26.094Z,4072.00
2022-07-26T05:00:26.073Z,4092.00
2022-07-26T05:01:26.116Z,4264.00
2022-07-26T05:02:26.121Z,4296.00
2022-07-26T05:03:26.007Z,4220.00
2022-07-26T05:04:25.977Z,4452.00
2022-07-26T05:05:25.961Z,4512.00
2022-07-26T05:06:25.931Z,4216.00
2022-07-26T05:07:25.908Z,4156.00
2022-07-26T05:08:25.890Z,4264.00
2022-07-26T05:09:25.861Z,4356.00
2022-07-26T05:10:25.836Z,4400.00
2022-07-26T05:11:25.810Z,4352.00
2022-07-26T05:12:25.787Z,4380.00
2022-07-26T05:13:30.453Z,4432.00
2022-07-26T05:14:25.741Z,4452.00
2022-07-26T05:15:25.720Z,4488.00
2022-07-26T05:16:25.738Z,4484.00
2022-07-26T05:17:26.110Z,4520.00
2022-07-26T05:18:25.672Z,4644.00
2022-07-26T05:19:25.624Z,4672.00
2022-07-26T05:20:25.599Z,4632.00
2022-07-26T05:21:25.578Z,4680.00
2022-07-26T05:22:25.554Z,4716.00
2022-07-26T05:23:25.528Z,4768.00
2022-07-26T05:24:25.506Z,4784.00
2022-07-26T05:25:25.485Z,4800.00
2022-07-26T05:26:25.462Z,4812.00
2022-07-26T05:27:25.441Z,4980.00
2022-07-26T05:28:25.417Z,5032.00
2022-07-26T05:29:25.389Z,5176.00
2022-07-26T05:30:25.410Z,5272.00
2022-07-26T05:31:25.384Z,5088.00
2022-07-26T05:32:25.319Z,4992.00
2022-07-26T05:33:25.296Z,5140.00
2022-07-26T05:34:25.273Z,5296.00
2022-07-26T05:35:25.251Z,5348.00
2022-07-26T05:36:25.228Z,5276.00
2022-07-26T05:37:25.211Z,5520.00
2022-07-26T05:38:25.180Z,5464.00
2022-07-26T05:39:25.161Z,6808.00
2022-07-26T05:40:25.139Z,8304.00
2022-07-26T05:41:25.115Z,8544.00
2022-07-26T05:42:25.088Z,10980.00
2022-07-26T05:43:25.068Z,11220.00
2022-07-26T05:44:25.061Z,8148.00
2022-07-26T05:45:25.022Z,7636.00
2022-07-26T05:46:25.145Z,7260.00
2022-07-26T05:47:24.978Z,8216.00
2022-07-26T05:48:24.959Z,13988.00
2022-07-26T05:49:24.933Z,18880.00
2022-07-26T05:50:24.912Z,19072.00
2022-07-26T05:51:24.889Z,19968.00
2022-07-26T05:52:24.869Z,20224.00
2022-07-26T05:53:24.848Z,20384.00
2022-07-26T05:54:24.829Z,20160.00
2022-07-26T05:55:24.803Z,20672.00
2022-07-26T05:56:24.784Z,12992.00
2022-07-26T05:57:24.763Z,21408.00
2022-07-26T05:58:24.742Z,7684.00
2022-07-26T05:59:24.723Z,22464.00
2022-07-26T06:00:24.711Z,9884.00
2022-07-26T06:01:24.683Z,24448.00
2022-07-26T06:02:24.718Z,9872.00
2022-07-26T06:03:24.647Z,11172.00
2022-07-26T06:04:25.902Z,20640.00
2022-07-26T06:05:24.613Z,9568.00
2022-07-26T06:06:24.588Z,11528.00
2022-07-26T06:07:24.566Z,16576.00
2022-07-26T06:08:24.550Z,10788.00
2022-07-26T06:09:24.531Z,23936.00
2022-07-26T06:10:24.511Z,28288.00
2022-07-26T06:11:24.490Z,26848.00
2022-07-26T06:12:24.471Z,8376.00
2022-07-26T06:13:24.456Z,10216.00
2022-07-26T06:14:24.434Z,17760.00
2022-07-26T06:15:24.413Z,28768.00
2022-07-26T06:16:24.392Z,11692.00
2022-07-26T06:17:24.491Z,30112.00
2022-07-26T06:18:24.360Z,28064.00
2022-07-26T06:19:24.337Z,10388.00
2022-07-26T06:20:24.320Z,30752.00
2022-07-26T06:21:24.301Z,31296.00
2022-07-26T06:22:24.282Z,24768.00
2022-07-26T06:23:33.532Z,30880.00
2022-07-26T06:24:24.251Z,26176.00
2022-07-26T06:25:24.226Z,15940.00
2022-07-26T06:26:24.215Z,33056.00
2022-07-26T06:27:24.189Z,35872.00
2022-07-26T06:28:24.175Z,25088.00
2022-07-26T06:29:24.156Z,30496.00
2022-07-26T06:30:24.138Z,8976.00
2022-07-26T06:31:24.193Z,23328.00
2022-07-26T06:32:24.104Z,35040.00
2022-07-26T06:33:24.085Z,36832.00
2022-07-26T06:34:24.066Z,13964.00
2022-07-26T06:35:24.051Z,30112.00
2022-07-26T06:36:28.501Z,14604.00
2022-07-26T06:37:24.017Z,12248.00
2022-07-26T06:38:24.002Z,13008.00
2022-07-26T06:39:23.984Z,27776.00
2022-07-26T06:40:23.966Z,20672.00
2022-07-26T06:41:23.948Z,10064.00
2022-07-26T06:42:23.931Z,36960.00
2022-07-26T06:43:23.910Z,40000.00
2022-07-26T06:44:23.898Z,33536.00
2022-07-26T06:45:23.881Z,13376.00
2022-07-26T06:46:23.922Z,15068.00
2022-07-26T06:47:23.846Z,19968.00
2022-07-26T06:48:23.831Z,20960.00
2022-07-26T06:49:23.865Z,21984.00
2022-07-26T06:50:25.333Z,38336.00
2022-07-26T06:51:23.776Z,19584.00
2022-07-26T06:52:23.765Z,19264.00
2022-07-26T06:53:23.743Z,13188.00
2022-07-26T06:54:23.726Z,13692.00
2022-07-26T06:55:23.705Z,14716.00
2022-07-26T06:56:23.690Z,15148.00
2022-07-26T06:57:23.670Z,10592.00
2022-07-26T06:58:23.654Z,11524.00
2022-07-26T06:59:23.636Z,11960.00
2022-07-26T07:00:23.763Z,11080.00
2022-07-26T07:01:51.546Z,13116.00
2022-07-26T07:02:23.581Z,14744.00
2022-07-26T07:03:23.561Z,38752.00
2022-07-26T07:04:23.620Z,42976.00
2022-07-26T07:05:23.611Z,40160.00
2022-07-26T07:06:23.504Z,19104.00
2022-07-26T07:07:23.486Z,25952.00
2022-07-26T07:08:23.491Z,41920.00
2022-07-26T07:09:23.452Z,24000.00
2022-07-26T07:10:23.865Z,42848.00
2022-07-26T07:11:23.415Z,41920.00
2022-07-26T07:12:23.398Z,44480.00
2022-07-26T07:13:23.388Z,17888.00
2022-07-26T07:14:23.362Z,45120.00
2022-07-26T07:15:23.345Z,41856.00
2022-07-26T07:16:23.372Z,34016.00
2022-07-26T07:17:23.311Z,46368.00
2022-07-26T07:18:23.293Z,48448.00
2022-07-26T07:19:23.276Z,15396.00
2022-07-26T07:20:23.369Z,17888.00
2022-07-26T07:21:23.244Z,42208.00
2022-07-26T07:22:23.227Z,44992.00
2022-07-26T07:23:23.243Z,50272.00
2022-07-26T07:24:23.194Z,52032.00
2022-07-26T07:25:30.273Z,49088.00
2022-07-26T07:26:23.161Z,47232.00
2022-07-26T07:27:23.146Z,18752.00
2022-07-26T07:28:23.134Z,45888.00
2022-07-26T07:29:23.114Z,47872.00
2022-07-26T07:30:23.094Z,14272.00
2022-07-26T07:31:30.071Z,39104.00
2022-07-26T07:32:23.133Z,49120.00
2022-07-26T07:33:23.417Z,49728.00
2022-07-26T07:34:23.829Z,52896.00
2022-07-26T07:35:23.016Z,52672.00
2022-07-26T07:36:23.005Z,44896.00
2022-07-26T07:37:22.987Z,18752.00
2022-07-26T07:38:22.974Z,25792.00
2022-07-26T07:39:22.955Z,21792.00
2022-07-26T07:40:23.058Z,50208.00
2022-07-26T07:41:22.937Z,34048.00
2022-07-26T07:42:22.912Z,49504.00
2022-07-26T07:43:22.897Z,53824.00
2022-07-26T07:44:22.884Z,54656.00
2022-07-26T07:45:22.869Z,36896.00
2022-07-26T07:46:22.911Z,15068.00
2022-07-26T07:47:22.839Z,14392.00
2022-07-26T07:48:22.823Z,50720.00
2022-07-26T07:49:22.834Z,51904.00
2022-07-26T07:50:22.789Z,55136.00
2022-07-26T07:51:22.778Z,58592.00
2022-07-26T07:52:22.762Z,57952.00
2022-07-26T07:53:22.746Z,53920.00
2022-07-26T07:54:22.730Z,14240.00
2022-07-26T07:55:41.018Z,17056.00
2022-07-26T07:56:22.704Z,60160.00
2022-07-26T07:57:22.686Z,64576.00
2022-07-26T07:58:22.672Z,46080.00
2022-07-26T07:59:22.804Z,24896.00
2022-07-26T08:00:27.114Z,18080.00
2022-07-26T08:01:22.739Z,17728.00
2022-07-26T08:02:22.610Z,16960.00
2022-07-26T08:03:22.593Z,13892.00
2022-07-26T08:04:22.688Z,13052.00
2022-07-26T08:05:22.760Z,13780.00
2022-07-26T08:06:22.548Z,13212.00
2022-07-26T08:07:22.534Z,12592.00
2022-07-26T08:08:22.930Z,15940.00
2022-07-26T08:09:22.498Z,21408.00
2022-07-26T08:10:22.479Z,60096.00
2022-07-26T08:11:22.466Z,24736.00
2022-07-26T08:12:22.450Z,32192.00
2022-07-26T08:13:22.442Z,18304.00
2022-07-26T08:14:22.414Z,62368.00
2022-07-26T08:15:22.397Z,62912.00
2022-07-26T08:16:22.469Z,62976.00
2022-07-26T08:17:22.364Z,65696.00
2022-07-26T08:18:22.850Z,42656.00
2022-07-26T08:19:22.600Z,67360.00
2022-07-26T08:20:22.945Z,38496.00
2022-07-26T08:21:22.298Z,69344.00
2022-07-26T08:22:22.280Z,67264.00
2022-07-26T08:23:22.273Z,62496.00
2022-07-26T08:24:22.250Z,21280.00
2022-07-26T08:25:22.232Z,11520.00
2022-07-26T08:26:22.216Z,12020.00
2022-07-26T08:27:22.199Z,15356.00
2022-07-26T08:28:45.095Z,65408.00
2022-07-26T08:29:22.168Z,77472.00
2022-07-26T08:30:22.154Z,69632.00
2022-07-26T08:31:22.223Z,75584.00
2022-07-26T08:32:22.122Z,52576.00
2022-07-26T08:33:22.105Z,42912.00
2022-07-26T08:34:22.089Z,39808.00
2022-07-26T08:35:22.072Z,48064.00
2022-07-26T08:36:22.057Z,43616.00
2022-07-26T08:37:22.040Z,31744.00
2022-07-26T08:38:22.024Z,22080.00
2022-07-26T08:39:22.008Z,16448.00
2022-07-26T08:40:21.997Z,15872.00
2022-07-26T08:41:21.977Z,17568.00
2022-07-26T08:42:22.467Z,17056.00
2022-07-26T08:43:21.943Z,13072.00
2022-07-26T08:44:21.927Z,10572.00
2022-07-26T08:45:21.911Z,9936.00
2022-07-26T08:46:25.275Z,8668.00
2022-07-26T08:47:37.461Z,6508.00
2022-07-26T08:48:21.859Z,4588.00
2022-07-26T08:49:21.920Z,3008.00
2022-07-26T08:50:21.825Z,2220.00
2022-07-26T08:51:21.808Z,2140.00
2022-07-26T08:52:21.801Z,2768.00
2022-07-26T08:53:21.773Z,3868.00
2022-07-26T08:54:21.753Z,5052.00
2022-07-26T08:55:21.739Z,5996.00
2022-07-26T08:56:21.716Z,6668.00
2022-07-26T08:57:21.694Z,7648.00
2022-07-26T08:58:21.675Z,8164.00
2022-07-26T08:59:22.794Z,7648.00
2022-07-26T09:00:21.640Z,6688.00
2022-07-26T09:01:21.766Z,5800.00
2022-07-26T09:02:21.596Z,5604.00
2022-07-26T09:03:21.617Z,5684.00
2022-07-26T09:04:31.858Z,6460.00
2022-07-26T09:05:21.535Z,8408.00
2022-07-26T09:06:21.508Z,11392.00
2022-07-26T09:07:21.489Z,14384.00
2022-07-26T09:08:21.473Z,15356.00
2022-07-26T09:09:21.445Z,17408.00
2022-07-26T09:10:21.423Z,19264.00
2022-07-26T09:11:21.402Z,18816.00
2022-07-26T09:12:21.381Z,19456.00
2022-07-26T09:13:21.359Z,21280.00
2022-07-26T09:14:21.338Z,20576.00
2022-07-26T09:15:21.317Z,24512.00
2022-07-26T09:16:21.394Z,26016.00
2022-07-26T09:17:21.268Z,24576.00
2022-07-26T09:18:21.245Z,23424.00
2022-07-26T09:19:21.228Z,23872.00
2022-07-26T09:20:24.277Z,25568.00
2022-07-26T09:21:21.183Z,27520.00
2022-07-26T09:22:21.159Z,29088.00
2022-07-26T09:23:21.137Z,31072.00
2022-07-26T09:24:21.115Z,32768.00
2022-07-26T09:25:21.096Z,33216.00
2022-07-26T09:26:21.074Z,32992.00
2022-07-26T09:27:24.112Z,32544.00
2022-07-26T09:28:21.033Z,32544.00
2022-07-26T09:29:21.011Z,33920.00
2022-07-26T09:30:21.002Z,34016.00
2022-07-26T09:31:21.027Z,35264.00
2022-07-26T09:32:20.946Z,36800.00
2022-07-26T09:33:20.928Z,39648.00
2022-07-26T09:34:20.909Z,39232.00
2022-07-26T09:35:49.941Z,37440.00
2022-07-26T09:36:20.863Z,39104.00
2022-07-26T09:37:20.847Z,39776.00
2022-07-26T09:38:20.823Z,35168.00
2022-07-26T09:39:22.828Z,33984.00
2022-07-26T09:40:20.787Z,36288.00
2022-07-26T09:41:20.767Z,40640.00
2022-07-26T09:42:29.501Z,38176.00
2022-07-26T09:43:23.986Z,38208.00
2022-07-26T09:44:20.708Z,37472.00
2022-07-26T09:45:20.680Z,36000.00
2022-07-26T09:46:20.754Z,35456.00
2022-07-26T09:47:20.647Z,36032.00
2022-07-26T09:48:20.624Z,36512.00
